sensor_id;sensor_type;location;lat;lon;timestamp;P1;durP1;ratioP1;P2;durP2;ratioP2
15643;SDS011;7921;43.586;1.408;2023-05-10T00:00:27;3.97;;;1.67;;
15643;SDS011;7921;43.586;1.408;2023-05-10T00:02:53;5.70;;;2.00;;
15643;SDS011;7921;43.586;1.408;2023-05-10T00:05:18;6.30;;;2.00;;
15643;SDS011;7921;43.586;1.408;2023-05-10T00:07:44;6.33;;;2.27;;
15643;SDS011;7921;43.586;1.408;2023-05-10T00:10:10;4.73;;;2.10;;
15643;SDS011;7921;43.586;1.408;2023-05-10T00:12:36;3.60;;;1.70;;
15643;SDS011;7921;43.586;1.408;2023-05-10T00:15:01;5.83;;;2.10;;
15643;SDS011;7921;43.586;1.408;2023-05-10T00:17:27;3.67;;;1.80;;
15643;SDS011;7921;43.586;1.408;2023-05-10T00:19:53;3.03;;;1.53;;
15643;SDS011;7921;43.586;1.408;2023-05-10T00:22:19;6.10;;;2.20;;
15643;SDS011;7921;43.586;1.408;2023-05-10T00:24:45;7.17;;;2.43;;
15643;SDS011;7921;43.586;1.408;2023-05-10T00:27:10;6.77;;;2.13;;
15643;SDS011;7921;43.586;1.408;2023-05-10T00:29:36;6.13;;;1.83;;
15643;SDS011;7921;43.586;1.408;2023-05-10T00:32:01;5.63;;;2.27;;
15643;SDS011;7921;43.586;1.408;2023-05-10T00:34:26;4.50;;;2.20;;
15643;SDS011;7921;43.586;1.408;2023-05-10T00:36:52;5.70;;;1.77;;
15643;SDS011;7921;43.586;1.408;2023-05-10T00:39:17;4.37;;;2.03;;
15643;SDS011;7921;43.586;1.408;2023-05-10T00:41:43;5.27;;;2.40;;
15643;SDS011;7921;43.586;1.408;2023-05-10T00:44:08;6.87;;;3.17;;
15643;SDS011;7921;43.586;1.408;2023-05-10T00:46:34;6.17;;;2.20;;
15643;SDS011;7921;43.586;1.408;2023-05-10T00:48:59;7.33;;;2.80;;
15643;SDS011;7921;43.586;1.408;2023-05-10T00:51:25;6.93;;;2.20;;
15643;SDS011;7921;43.586;1.408;2023-05-10T00:53:50;6.67;;;2.30;;
15643;SDS011;7921;43.586;1.408;2023-05-10T00:56:16;5.63;;;2.10;;
15643;SDS011;7921;43.586;1.408;2023-05-10T00:58:42;8.60;;;2.77;;
15643;SDS011;7921;43.586;1.408;2023-05-10T01:01:07;5.07;;;2.27;;
15643;SDS011;7921;43.586;1.408;2023-05-10T01:03:34;5.07;;;1.90;;
15643;SDS011;7921;43.586;1.408;2023-05-10T01:06:00;6.20;;;2.50;;
15643;SDS011;7921;43.586;1.408;2023-05-10T01:08:25;6.50;;;2.40;;
15643;SDS011;7921;43.586;1.408;2023-05-10T01:10:51;6.17;;;2.40;;
15643;SDS011;7921;43.586;1.408;2023-05-10T01:13:24;5.30;;;2.40;;
15643;SDS011;7921;43.586;1.408;2023-05-10T01:15:52;7.13;;;2.77;;
15643;SDS011;7921;43.586;1.408;2023-05-10T01:18:18;6.57;;;2.93;;
15643;SDS011;7921;43.586;1.408;2023-05-10T01:20:45;5.57;;;2.90;;
15643;SDS011;7921;43.586;1.408;2023-05-10T01:34:18;6.00;;;3.83;;
15643;SDS011;7921;43.586;1.408;2023-05-10T01:36:58;5.23;;;3.93;;
15643;SDS011;7921;43.586;1.408;2023-05-10T01:39:25;4.27;;;2.63;;
15643;SDS011;7921;43.586;1.408;2023-05-10T01:42:01;4.13;;;2.77;;
15643;SDS011;7921;43.586;1.408;2023-05-10T01:44:40;5.73;;;2.40;;
15643;SDS011;7921;43.586;1.408;2023-05-10T01:47:18;4.00;;;2.57;;
15643;SDS011;7921;43.586;1.408;2023-05-10T01:49:47;6.07;;;2.37;;
15643;SDS011;7921;43.586;1.408;2023-05-10T01:52:16;4.50;;;3.10;;
15643;SDS011;7921;43.586;1.408;2023-05-10T01:54:53;7.50;;;4.20;;
15643;SDS011;7921;43.586;1.408;2023-05-10T01:57:20;8.03;;;3.50;;
15643;SDS011;7921;43.586;1.408;2023-05-10T01:59:47;5.83;;;2.87;;
15643;SDS011;7921;43.586;1.408;2023-05-10T02:02:15;6.17;;;2.63;;
15643;SDS011;7921;43.586;1.408;2023-05-10T02:04:41;3.20;;;2.37;;
15643;SDS011;7921;43.586;1.408;2023-05-10T02:07:07;7.20;;;1.97;;
15643;SDS011;7921;43.586;1.408;2023-05-10T02:09:33;2.67;;;1.60;;
15643;SDS011;7921;43.586;1.408;2023-05-10T02:11:59;5.77;;;2.23;;
15643;SDS011;7921;43.586;1.408;2023-05-10T02:14:27;5.77;;;2.03;;
15643;SDS011;7921;43.586;1.408;2023-05-10T02:16:54;6.30;;;1.97;;
15643;SDS011;7921;43.586;1.408;2023-05-10T02:19:20;2.50;;;2.13;;
15643;SDS011;7921;43.586;1.408;2023-05-10T02:21:46;7.60;;;2.70;;
15643;SDS011;7921;43.586;1.408;2023-05-10T02:24:12;5.60;;;2.83;;
15643;SDS011;7921;43.586;1.408;2023-05-10T02:26:39;5.40;;;2.50;;
15643;SDS011;7921;43.586;1.408;2023-05-10T02:29:05;5.47;;;2.23;;
15643;SDS011;7921;43.586;1.408;2023-05-10T02:31:32;3.23;;;1.97;;
15643;SDS011;7921;43.586;1.408;2023-05-10T02:33:58;5.43;;;2.20;;
15643;SDS011;7921;43.586;1.408;2023-05-10T02:36:25;6.57;;;2.27;;
15643;SDS011;7921;43.586;1.408;2023-05-10T02:38:52;4.10;;;1.97;;
15643;SDS011;7921;43.586;1.408;2023-05-10T02:41:19;4.40;;;1.57;;
15643;SDS011;7921;43.586;1.408;2023-05-10T02:43:46;4.70;;;1.77;;
15643;SDS011;7921;43.586;1.408;2023-05-10T02:46:12;5.33;;;1.67;;
15643;SDS011;7921;43.586;1.408;2023-05-10T02:48:37;8.60;;;2.57;;
15643;SDS011;7921;43.586;1.408;2023-05-10T02:51:04;4.40;;;1.97;;
15643;SDS011;7921;43.586;1.408;2023-05-10T02:53:31;5.43;;;2.30;;
15643;SDS011;7921;43.586;1.408;2023-05-10T02:55:58;6.57;;;1.90;;
15643;SDS011;7921;43.586;1.408;2023-05-10T02:58:25;5.07;;;1.90;;
15643;SDS011;7921;43.586;1.408;2023-05-10T03:00:51;7.73;;;2.10;;
15643;SDS011;7921;43.586;1.408;2023-05-10T03:03:17;6.07;;;2.00;;
15643;SDS011;7921;43.586;1.408;2023-05-10T03:05:42;5.10;;;1.57;;
15643;SDS011;7921;43.586;1.408;2023-05-10T03:08:07;7.97;;;2.53;;
15643;SDS011;7921;43.586;1.408;2023-05-10T03:10:33;6.23;;;2.13;;
15643;SDS011;7921;43.586;1.408;2023-05-10T03:13:09;6.63;;;1.80;;
15643;SDS011;7921;43.586;1.408;2023-05-10T03:15:51;5.33;;;1.97;;
15643;SDS011;7921;43.586;1.408;2023-05-10T03:18:44;4.43;;;1.70;;
15643;SDS011;7921;43.586;1.408;2023-05-10T03:21:13;5.13;;;1.50;;
15643;SDS011;7921;43.586;1.408;2023-05-10T03:23:43;3.50;;;1.37;;
15643;SDS011;7921;43.586;1.408;2023-05-10T03:26:17;4.13;;;1.63;;
15643;SDS011;7921;43.586;1.408;2023-05-10T03:28:45;4.57;;;1.47;;
15643;SDS011;7921;43.586;1.408;2023-05-10T03:31:11;3.43;;;1.70;;
15643;SDS011;7921;43.586;1.408;2023-05-10T03:33:45;3.57;;;1.37;;
15643;SDS011;7921;43.586;1.408;2023-05-10T03:36:13;2.73;;;1.10;;
15643;SDS011;7921;43.586;1.408;2023-05-10T03:38:39;3.50;;;1.40;;
15643;SDS011;7921;43.586;1.408;2023-05-10T03:41:04;3.47;;;1.53;;
15643;SDS011;7921;43.586;1.408;2023-05-10T03:43:30;3.10;;;1.20;;
15643;SDS011;7921;43.586;1.408;2023-05-10T03:45:55;3.33;;;1.27;;
15643;SDS011;7921;43.586;1.408;2023-05-10T03:48:20;4.23;;;1.87;;
15643;SDS011;7921;43.586;1.408;2023-05-10T03:50:46;2.77;;;1.20;;
15643;SDS011;7921;43.586;1.408;2023-05-10T03:53:11;2.90;;;1.50;;
15643;SDS011;7921;43.586;1.408;2023-05-10T03:55:37;3.93;;;1.20;;
15643;SDS011;7921;43.586;1.408;2023-05-10T03:58:02;3.87;;;1.33;;
15643;SDS011;7921;43.586;1.408;2023-05-10T04:00:28;3.57;;;1.27;;
15643;SDS011;7921;43.586;1.408;2023-05-10T04:02:53;3.77;;;1.33;;
15643;SDS011;7921;43.586;1.408;2023-05-10T04:05:18;3.80;;;1.20;;
15643;SDS011;7921;43.586;1.408;2023-05-10T04:07:44;5.37;;;1.90;;
15643;SDS011;7921;43.586;1.408;2023-05-10T04:10:10;4.13;;;1.40;;
15643;SDS011;7921;43.586;1.408;2023-05-10T04:12:36;3.77;;;1.47;;
15643;SDS011;7921;43.586;1.408;2023-05-10T04:15:01;3.37;;;1.57;;
15643;SDS011;7921;43.586;1.408;2023-05-10T04:17:27;3.30;;;1.53;;
15643;SDS011;7921;43.586;1.408;2023-05-10T04:19:52;3.80;;;1.53;;
15643;SDS011;7921;43.586;1.408;2023-05-10T04:22:19;3.97;;;1.50;;
15643;SDS011;7921;43.586;1.408;2023-05-10T04:24:45;4.43;;;1.73;;
15643;SDS011;7921;43.586;1.408;2023-05-10T04:27:10;5.40;;;1.60;;
15643;SDS011;7921;43.586;1.408;2023-05-10T04:29:36;6.60;;;3.07;;
15643;SDS011;7921;43.586;1.408;2023-05-10T04:32:02;4.47;;;1.40;;
15643;SDS011;7921;43.586;1.408;2023-05-10T04:34:28;3.27;;;1.63;;
15643;SDS011;7921;43.586;1.408;2023-05-10T04:36:54;3.87;;;1.57;;
15643;SDS011;7921;43.586;1.408;2023-05-10T04:39:21;4.93;;;1.60;;
15643;SDS011;7921;43.586;1.408;2023-05-10T04:41:46;5.30;;;2.13;;
15643;SDS011;7921;43.586;1.408;2023-05-10T04:44:12;5.47;;;1.60;;
15643;SDS011;7921;43.586;1.408;2023-05-10T04:46:37;3.23;;;1.60;;
15643;SDS011;7921;43.586;1.408;2023-05-10T04:49:02;7.10;;;1.70;;
15643;SDS011;7921;43.586;1.408;2023-05-10T04:51:28;4.73;;;1.60;;
15643;SDS011;7921;43.586;1.408;2023-05-10T04:53:53;6.40;;;1.80;;
15643;SDS011;7921;43.586;1.408;2023-05-10T04:56:19;4.37;;;1.63;;
15643;SDS011;7921;43.586;1.408;2023-05-10T04:58:44;3.63;;;1.50;;
15643;SDS011;7921;43.586;1.408;2023-05-10T05:01:09;4.80;;;1.70;;
15643;SDS011;7921;43.586;1.408;2023-05-10T05:03:35;4.17;;;1.77;;
15643;SDS011;7921;43.586;1.408;2023-05-10T05:06:01;7.37;;;2.13;;
15643;SDS011;7921;43.586;1.408;2023-05-10T05:08:27;4.97;;;1.40;;
15643;SDS011;7921;43.586;1.408;2023-05-10T05:10:52;4.13;;;2.10;;
15643;SDS011;7921;43.586;1.408;2023-05-10T05:13:18;3.57;;;1.60;;
15643;SDS011;7921;43.586;1.408;2023-05-10T05:15:43;3.43;;;1.90;;
15643;SDS011;7921;43.586;1.408;2023-05-10T05:18:09;6.57;;;1.93;;
15643;SDS011;7921;43.586;1.408;2023-05-10T05:20:34;10.27;;;4.20;;
15643;SDS011;7921;43.586;1.408;2023-05-10T05:23:00;8.63;;;3.90;;
15643;SDS011;7921;43.586;1.408;2023-05-10T05:25:26;7.17;;;3.60;;
15643;SDS011;7921;43.586;1.408;2023-05-10T05:27:51;4.37;;;1.90;;
15643;SDS011;7921;43.586;1.408;2023-05-10T05:30:16;6.00;;;1.83;;
15643;SDS011;7921;43.586;1.408;2023-05-10T05:32:42;4.67;;;1.67;;
15643;SDS011;7921;43.586;1.408;2023-05-10T05:35:07;5.50;;;1.90;;
15643;SDS011;7921;43.586;1.408;2023-05-10T05:37:33;3.17;;;1.60;;
15643;SDS011;7921;43.586;1.408;2023-05-10T05:39:58;5.50;;;1.90;;
15643;SDS011;7921;43.586;1.408;2023-05-10T05:42:25;4.30;;;1.93;;
15643;SDS011;7921;43.586;1.408;2023-05-10T05:44:50;4.67;;;2.30;;
15643;SDS011;7921;43.586;1.408;2023-05-10T05:47:16;4.67;;;2.63;;
15643;SDS011;7921;43.586;1.408;2023-05-10T05:49:41;5.13;;;2.20;;
15643;SDS011;7921;43.586;1.408;2023-05-10T05:52:06;8.83;;;2.33;;
15643;SDS011;7921;43.586;1.408;2023-05-10T05:54:32;4.77;;;1.77;;
15643;SDS011;7921;43.586;1.408;2023-05-10T05:56:57;4.10;;;1.57;;
15643;SDS011;7921;43.586;1.408;2023-05-10T05:59:23;4.27;;;1.37;;
15643;SDS011;7921;43.586;1.408;2023-05-10T06:01:49;4.73;;;1.93;;
15643;SDS011;7921;43.586;1.408;2023-05-10T06:04:14;3.60;;;1.50;;
15643;SDS011;7921;43.586;1.408;2023-05-10T06:06:40;4.07;;;1.47;;
15643;SDS011;7921;43.586;1.408;2023-05-10T06:09:05;3.90;;;1.70;;
15643;SDS011;7921;43.586;1.408;2023-05-10T06:11:30;3.83;;;1.80;;
15643;SDS011;7921;43.586;1.408;2023-05-10T06:13:57;3.10;;;1.57;;
15643;SDS011;7921;43.586;1.408;2023-05-10T06:16:23;7.23;;;2.00;;
15643;SDS011;7921;43.586;1.408;2023-05-10T06:18:48;5.47;;;1.80;;
15643;SDS011;7921;43.586;1.408;2023-05-10T06:21:14;4.43;;;1.70;;
15643;SDS011;7921;43.586;1.408;2023-05-10T06:23:40;3.57;;;1.70;;
15643;SDS011;7921;43.586;1.408;2023-05-10T06:26:05;4.60;;;1.73;;
15643;SDS011;7921;43.586;1.408;2023-05-10T06:28:30;4.13;;;1.57;;
15643;SDS011;7921;43.586;1.408;2023-05-10T06:30:57;6.43;;;2.37;;
15643;SDS011;7921;43.586;1.408;2023-05-10T06:33:22;4.33;;;1.50;;
15643;SDS011;7921;43.586;1.408;2023-05-10T06:35:48;5.80;;;2.00;;
15643;SDS011;7921;43.586;1.408;2023-05-10T06:38:13;6.87;;;2.20;;
15643;SDS011;7921;43.586;1.408;2023-05-10T06:40:42;4.50;;;1.60;;
15643;SDS011;7921;43.586;1.408;2023-05-10T06:43:07;4.07;;;1.70;;
15643;SDS011;7921;43.586;1.408;2023-05-10T06:45:33;3.20;;;1.83;;
15643;SDS011;7921;43.586;1.408;2023-05-10T06:47:58;4.03;;;1.80;;
15643;SDS011;7921;43.586;1.408;2023-05-10T06:50:24;4.77;;;1.70;;
15643;SDS011;7921;43.586;1.408;2023-05-10T06:52:49;6.13;;;1.90;;
15643;SDS011;7921;43.586;1.408;2023-05-10T06:55:15;3.80;;;1.60;;
15643;SDS011;7921;43.586;1.408;2023-05-10T06:57:40;4.73;;;1.73;;
15643;SDS011;7921;43.586;1.408;2023-05-10T07:00:06;5.17;;;1.73;;
15643;SDS011;7921;43.586;1.408;2023-05-10T07:02:32;4.67;;;1.80;;
15643;SDS011;7921;43.586;1.408;2023-05-10T07:04:58;4.23;;;1.60;;
15643;SDS011;7921;43.586;1.408;2023-05-10T07:07:23;5.50;;;1.97;;
15643;SDS011;7921;43.586;1.408;2023-05-10T07:09:48;4.20;;;1.43;;
15643;SDS011;7921;43.586;1.408;2023-05-10T07:12:14;4.60;;;1.60;;
15643;SDS011;7921;43.586;1.408;2023-05-10T07:14:40;4.23;;;1.63;;
15643;SDS011;7921;43.586;1.408;2023-05-10T07:17:05;4.33;;;2.33;;
15643;SDS011;7921;43.586;1.408;2023-05-10T07:19:31;6.13;;;1.90;;
15643;SDS011;7921;43.586;1.408;2023-05-10T07:21:57;3.07;;;1.40;;
15643;SDS011;7921;43.586;1.408;2023-05-10T07:24:23;4.77;;;1.73;;
15643;SDS011;7921;43.586;1.408;2023-05-10T07:26:49;6.40;;;1.73;;
15643;SDS011;7921;43.586;1.408;2023-05-10T07:29:14;3.60;;;1.60;;
15643;SDS011;7921;43.586;1.408;2023-05-10T07:31:40;3.90;;;1.60;;
15643;SDS011;7921;43.586;1.408;2023-05-10T07:34:07;4.93;;;1.60;;
15643;SDS011;7921;43.586;1.408;2023-05-10T07:36:33;7.57;;;1.90;;
15643;SDS011;7921;43.586;1.408;2023-05-10T07:38:59;3.17;;;1.50;;
15643;SDS011;7921;43.586;1.408;2023-05-10T07:41:24;6.50;;;1.67;;
15643;SDS011;7921;43.586;1.408;2023-05-10T07:43:50;5.50;;;2.23;;
15643;SDS011;7921;43.586;1.408;2023-05-10T07:46:15;5.27;;;1.60;;
15643;SDS011;7921;43.586;1.408;2023-05-10T07:48:40;6.03;;;2.43;;
15643;SDS011;7921;43.586;1.408;2023-05-10T07:51:06;3.57;;;1.50;;
15643;SDS011;7921;43.586;1.408;2023-05-10T07:53:34;4.23;;;1.60;;
15643;SDS011;7921;43.586;1.408;2023-05-10T07:56:19;4.60;;;1.60;;
15643;SDS011;7921;43.586;1.408;2023-05-10T07:58:50;5.27;;;1.67;;
15643;SDS011;7921;43.586;1.408;2023-05-10T08:01:16;4.47;;;1.70;;
15643;SDS011;7921;43.586;1.408;2023-05-10T08:03:41;6.03;;;2.07;;
15643;SDS011;7921;43.586;1.408;2023-05-10T08:06:06;3.67;;;1.85;;
15643;SDS011;7921;43.586;1.408;2023-05-10T08:08:32;3.35;;;1.80;;
15643;SDS011;7921;43.586;1.408;2023-05-10T08:10:57;3.47;;;1.73;;
15643;SDS011;7921;43.586;1.408;2023-05-10T08:13:22;5.40;;;1.80;;
15643;SDS011;7921;43.586;1.408;2023-05-10T08:15:48;3.53;;;1.55;;
15643;SDS011;7921;43.586;1.408;2023-05-10T08:18:13;4.47;;;1.50;;
15643;SDS011;7921;43.586;1.408;2023-05-10T08:20:38;4.43;;;1.67;;
15643;SDS011;7921;43.586;1.408;2023-05-10T08:23:04;4.68;;;1.70;;
15643;SDS011;7921;43.586;1.408;2023-05-10T08:25:29;4.15;;;1.40;;
15643;SDS011;7921;43.586;1.408;2023-05-10T08:27:55;4.70;;;1.83;;
15643;SDS011;7921;43.586;1.408;2023-05-10T08:30:20;4.15;;;1.40;;
15643;SDS011;7921;43.586;1.408;2023-05-10T08:32:46;3.45;;;1.40;;
15643;SDS011;7921;43.586;1.408;2023-05-10T08:35:11;4.10;;;1.52;;
15643;SDS011;7921;43.586;1.408;2023-05-10T08:37:36;3.25;;;1.45;;
15643;SDS011;7921;43.586;1.408;2023-05-10T08:40:02;2.80;;;1.10;;
15643;SDS011;7921;43.586;1.408;2023-05-10T08:42:28;4.15;;;2.10;;
15643;SDS011;7921;43.586;1.408;2023-05-10T08:44:55;5.60;;;1.90;;
15643;SDS011;7921;43.586;1.408;2023-05-10T08:47:22;2.22;;;1.35;;
15643;SDS011;7921;43.586;1.408;2023-05-10T08:49:48;6.28;;;1.23;;
15643;SDS011;7921;43.586;1.408;2023-05-10T08:52:16;3.90;;;1.55;;
15643;SDS011;7921;43.586;1.408;2023-05-10T08:54:41;3.17;;;1.00;;
15643;SDS011;7921;43.586;1.408;2023-05-10T08:57:07;4.53;;;1.58;;
15643;SDS011;7921;43.586;1.408;2023-05-10T08:59:32;3.97;;;1.50;;
15643;SDS011;7921;43.586;1.408;2023-05-10T09:01:58;4.03;;;1.50;;
15643;SDS011;7921;43.586;1.408;2023-05-10T09:04:24;3.95;;;1.40;;
15643;SDS011;7921;43.586;1.408;2023-05-10T09:06:50;2.50;;;1.00;;
15643;SDS011;7921;43.586;1.408;2023-05-10T09:09:16;4.85;;;1.30;;
15643;SDS011;7921;43.586;1.408;2023-05-10T09:11:42;3.60;;;1.45;;
15643;SDS011;7921;43.586;1.408;2023-05-10T09:14:09;2.95;;;1.17;;
15643;SDS011;7921;43.586;1.408;2023-05-10T09:16:35;5.95;;;1.52;;
15643;SDS011;7921;43.586;1.408;2023-05-10T09:19:00;2.90;;;0.95;;
15643;SDS011;7921;43.586;1.408;2023-05-10T09:21:25;3.13;;;1.02;;
15643;SDS011;7921;43.586;1.408;2023-05-10T09:23:51;4.70;;;1.20;;
15643;SDS011;7921;43.586;1.408;2023-05-10T09:26:21;3.47;;;1.40;;
15643;SDS011;7921;43.586;1.408;2023-05-10T09:29:08;3.25;;;1.02;;
15643;SDS011;7921;43.586;1.408;2023-05-10T09:31:43;2.53;;;1.20;;
15643;SDS011;7921;43.586;1.408;2023-05-10T09:34:15;2.88;;;1.00;;
15643;SDS011;7921;43.586;1.408;2023-05-10T09:36:53;3.60;;;1.60;;
15643;SDS011;7921;43.586;1.408;2023-05-10T09:41:57;3.22;;;1.40;;
15643;SDS011;7921;43.586;1.408;2023-05-10T09:44:25;2.47;;;1.00;;
15643;SDS011;7921;43.586;1.408;2023-05-10T09:46:50;3.13;;;1.10;;
15643;SDS011;7921;43.586;1.408;2023-05-10T09:49:17;4.40;;;1.35;;
15643;SDS011;7921;43.586;1.408;2023-05-10T09:51:44;1.90;;;1.10;;
15643;SDS011;7921;43.586;1.408;2023-05-10T09:56:39;3.53;;;1.50;;
15643;SDS011;7921;43.586;1.408;2023-05-10T09:59:06;3.45;;;1.10;;
15643;SDS011;7921;43.586;1.408;2023-05-10T10:01:32;1.60;;;1.05;;
15643;SDS011;7921;43.586;1.408;2023-05-10T10:03:59;4.65;;;1.20;;
15643;SDS011;7921;43.586;1.408;2023-05-10T10:06:24;2.20;;;1.05;;
15643;SDS011;7921;43.586;1.408;2023-05-10T10:08:50;2.75;;;1.13;;
15643;SDS011;7921;43.586;1.408;2023-05-10T10:11:16;1.50;;;0.77;;
15643;SDS011;7921;43.586;1.408;2023-05-10T10:13:42;1.98;;;0.90;;
15643;SDS011;7921;43.586;1.408;2023-05-10T10:16:08;3.78;;;1.20;;
15643;SDS011;7921;43.586;1.408;2023-05-10T10:18:34;2.03;;;0.90;;
15643;SDS011;7921;43.586;1.408;2023-05-10T10:21:03;4.32;;;1.30;;
15643;SDS011;7921;43.586;1.408;2023-05-10T10:23:30;1.67;;;1.00;;
15643;SDS011;7921;43.586;1.408;2023-05-10T10:25:55;1.48;;;0.93;;
15643;SDS011;7921;43.586;1.408;2023-05-10T10:28:26;3.35;;;0.90;;
15643;SDS011;7921;43.586;1.408;2023-05-10T10:36:29;3.33;;;1.10;;
15643;SDS011;7921;43.586;1.408;2023-05-10T10:38:59;2.63;;;1.05;;
15643;SDS011;7921;43.586;1.408;2023-05-10T10:42:08;2.85;;;1.13;;
15643;SDS011;7921;43.586;1.408;2023-05-10T10:47:11;2.00;;;0.85;;
15643;SDS011;7921;43.586;1.408;2023-05-10T10:52:32;2.05;;;1.10;;
15643;SDS011;7921;43.586;1.408;2023-05-10T11:02:49;3.00;;;1.02;;
15643;SDS011;7921;43.586;1.408;2023-05-10T11:05:25;2.35;;;1.13;;
15643;SDS011;7921;43.586;1.408;2023-05-10T11:07:54;1.95;;;0.90;;
15643;SDS011;7921;43.586;1.408;2023-05-10T11:10:21;3.90;;;1.27;;
15643;SDS011;7921;43.586;1.408;2023-05-10T11:13:02;2.42;;;1.40;;
15643;SDS011;7921;43.586;1.408;2023-05-10T11:15:38;3.20;;;1.27;;
15643;SDS011;7921;43.586;1.408;2023-05-10T11:21:07;3.75;;;1.30;;
15643;SDS011;7921;43.586;1.408;2023-05-10T11:26:06;3.15;;;1.05;;
15643;SDS011;7921;43.586;1.408;2023-05-10T11:28:34;1.83;;;1.05;;
15643;SDS011;7921;43.586;1.408;2023-05-10T11:31:05;4.10;;;0.88;;
15643;SDS011;7921;43.586;1.408;2023-05-10T11:33:31;3.47;;;1.20;;
15643;SDS011;7921;43.586;1.408;2023-05-10T11:36:10;3.45;;;1.48;;
15643;SDS011;7921;43.586;1.408;2023-05-10T11:38:45;2.60;;;0.93;;
15643;SDS011;7921;43.586;1.408;2023-05-10T11:41:12;1.83;;;1.00;;
15643;SDS011;7921;43.586;1.408;2023-05-10T11:43:38;2.55;;;1.23;;
15643;SDS011;7921;43.586;1.408;2023-05-10T11:46:07;3.40;;;1.10;;
15643;SDS011;7921;43.586;1.408;2023-05-10T11:48:35;2.22;;;1.08;;
15643;SDS011;7921;43.586;1.408;2023-05-10T11:51:01;1.42;;;0.90;;
15643;SDS011;7921;43.586;1.408;2023-05-10T11:53:27;2.10;;;0.90;;
15643;SDS011;7921;43.586;1.408;2023-05-10T11:56:02;2.60;;;1.00;;
15643;SDS011;7921;43.586;1.408;2023-05-10T11:58:28;3.05;;;0.70;;
15643;SDS011;7921;43.586;1.408;2023-05-10T12:00:53;1.45;;;0.73;;
15643;SDS011;7921;43.586;1.408;2023-05-10T12:03:19;1.10;;;0.70;;
15643;SDS011;7921;43.586;1.408;2023-05-10T12:05:44;1.35;;;0.70;;
15643;SDS011;7921;43.586;1.408;2023-05-10T12:08:10;1.83;;;0.68;;
15643;SDS011;7921;43.586;1.408;2023-05-10T12:10:37;1.67;;;0.80;;
15643;SDS011;7921;43.586;1.408;2023-05-10T12:13:02;1.83;;;0.60;;
15643;SDS011;7921;43.586;1.408;2023-05-10T12:15:28;3.22;;;1.17;;
15643;SDS011;7921;43.586;1.408;2023-05-10T12:17:53;2.22;;;0.88;;
15643;SDS011;7921;43.586;1.408;2023-05-10T12:20:20;2.53;;;0.70;;
15643;SDS011;7921;43.586;1.408;2023-05-10T12:22:52;2.17;;;0.70;;
15643;SDS011;7921;43.586;1.408;2023-05-10T12:25:21;3.92;;;1.20;;
15643;SDS011;7921;43.586;1.408;2023-05-10T12:27:51;2.45;;;0.90;;
15643;SDS011;7921;43.586;1.408;2023-05-10T12:30:27;3.10;;;1.40;;
15643;SDS011;7921;43.586;1.408;2023-05-10T12:32:58;3.88;;;1.20;;
15643;SDS011;7921;43.586;1.408;2023-05-10T12:35:25;4.22;;;1.50;;
15643;SDS011;7921;43.586;1.408;2023-05-10T12:37:50;2.28;;;1.05;;
15643;SDS011;7921;43.586;1.408;2023-05-10T12:40:16;3.20;;;1.20;;
15643;SDS011;7921;43.586;1.408;2023-05-10T12:42:41;2.10;;;1.02;;
15643;SDS011;7921;43.586;1.408;2023-05-10T12:45:09;1.42;;;0.57;;
15643;SDS011;7921;43.586;1.408;2023-05-10T12:47:35;1.73;;;0.65;;
15643;SDS011;7921;43.586;1.408;2023-05-10T12:50:01;2.30;;;1.05;;
15643;SDS011;7921;43.586;1.408;2023-05-10T12:52:28;0.65;;;0.60;;
15643;SDS011;7921;43.586;1.408;2023-05-10T12:54:53;1.45;;;0.82;;
15643;SDS011;7921;43.586;1.408;2023-05-10T12:57:20;2.00;;;0.75;;
15643;SDS011;7921;43.586;1.408;2023-05-10T12:59:45;1.42;;;0.63;;
15643;SDS011;7921;43.586;1.408;2023-05-10T13:02:11;1.35;;;0.80;;
15643;SDS011;7921;43.586;1.408;2023-05-10T13:04:36;1.40;;;0.93;;
15643;SDS011;7921;43.586;1.408;2023-05-10T13:07:08;1.63;;;0.60;;
15643;SDS011;7921;43.586;1.408;2023-05-10T13:09:33;2.15;;;0.70;;
15643;SDS011;7921;43.586;1.408;2023-05-10T13:11:59;1.00;;;0.50;;
15643;SDS011;7921;43.586;1.408;2023-05-10T13:14:25;1.05;;;0.70;;
15643;SDS011;7921;43.586;1.408;2023-05-10T13:16:50;0.85;;;0.60;;
15643;SDS011;7921;43.586;1.408;2023-05-10T13:19:16;1.75;;;0.65;;
15643;SDS011;7921;43.586;1.408;2023-05-10T13:21:42;2.50;;;0.88;;
15643;SDS011;7921;43.586;1.408;2023-05-10T13:24:09;2.05;;;0.85;;
15643;SDS011;7921;43.586;1.408;2023-05-10T13:26:35;0.95;;;0.60;;
15643;SDS011;7921;43.586;1.408;2023-05-10T13:29:01;2.50;;;0.80;;
15643;SDS011;7921;43.586;1.408;2023-05-10T13:31:27;2.45;;;0.63;;
15643;SDS011;7921;43.586;1.408;2023-05-10T13:33:52;2.20;;;0.90;;
15643;SDS011;7921;43.586;1.408;2023-05-10T13:36:17;2.28;;;0.82;;
15643;SDS011;7921;43.586;1.408;2023-05-10T13:38:43;0.75;;;0.55;;
15643;SDS011;7921;43.586;1.408;2023-05-10T13:41:08;2.05;;;0.68;;
15643;SDS011;7921;43.586;1.408;2023-05-10T13:43:33;0.95;;;0.60;;
15643;SDS011;7921;43.586;1.408;2023-05-10T13:46:00;1.05;;;0.63;;
15643;SDS011;7921;43.586;1.408;2023-05-10T13:48:26;1.05;;;0.90;;
15643;SDS011;7921;43.586;1.408;2023-05-10T13:50:52;1.73;;;0.63;;
15643;SDS011;7921;43.586;1.408;2023-05-10T13:53:17;1.33;;;0.77;;
15643;SDS011;7921;43.586;1.408;2023-05-10T13:55:42;1.60;;;0.60;;
15643;SDS011;7921;43.586;1.408;2023-05-10T13:58:08;4.95;;;1.00;;
15643;SDS011;7921;43.586;1.408;2023-05-10T14:00:33;2.40;;;0.73;;
15643;SDS011;7921;43.586;1.408;2023-05-10T14:02:58;1.38;;;0.90;;
15643;SDS011;7921;43.586;1.408;2023-05-10T14:05:24;1.73;;;1.05;;
15643;SDS011;7921;43.586;1.408;2023-05-10T14:07:50;2.67;;;1.00;;
15643;SDS011;7921;43.586;1.408;2023-05-10T14:10:15;2.33;;;0.60;;
15643;SDS011;7921;43.586;1.408;2023-05-10T14:12:41;1.70;;;0.90;;
15643;SDS011;7921;43.586;1.408;2023-05-10T14:15:06;3.38;;;1.10;;
15643;SDS011;7921;43.586;1.408;2023-05-10T14:17:32;1.15;;;0.60;;
15643;SDS011;7921;43.586;1.408;2023-05-10T14:19:58;1.48;;;0.93;;
15643;SDS011;7921;43.586;1.408;2023-05-10T14:22:23;2.75;;;0.70;;
15643;SDS011;7921;43.586;1.408;2023-05-10T14:24:48;1.40;;;0.93;;
15643;SDS011;7921;43.586;1.408;2023-05-10T14:27:14;2.83;;;0.68;;
15643;SDS011;7921;43.586;1.408;2023-05-10T14:29:40;2.40;;;0.90;;
15643;SDS011;7921;43.586;1.408;2023-05-10T14:32:05;2.25;;;0.77;;
15643;SDS011;7921;43.586;1.408;2023-05-10T14:34:30;1.10;;;0.60;;
15643;SDS011;7921;43.586;1.408;2023-05-10T14:36:56;1.17;;;0.70;;
15643;SDS011;7921;43.586;1.408;2023-05-10T14:39:21;0.85;;;0.70;;
15643;SDS011;7921;43.586;1.408;2023-05-10T14:41:47;2.05;;;0.68;;
15643;SDS011;7921;43.586;1.408;2023-05-10T14:44:13;1.77;;;0.77;;
15643;SDS011;7921;43.586;1.408;2023-05-10T14:46:40;1.52;;;0.80;;
15643;SDS011;7921;43.586;1.408;2023-05-10T14:49:06;1.40;;;0.60;;
15643;SDS011;7921;43.586;1.408;2023-05-10T14:51:32;1.92;;;1.15;;
15643;SDS011;7921;43.586;1.408;2023-05-10T14:53:57;3.40;;;1.00;;
15643;SDS011;7921;43.586;1.408;2023-05-10T14:56:23;1.15;;;0.70;;
15643;SDS011;7921;43.586;1.408;2023-05-10T14:58:49;0.60;;;0.60;;
15643;SDS011;7921;43.586;1.408;2023-05-10T15:01:14;1.40;;;0.80;;
15643;SDS011;7921;43.586;1.408;2023-05-10T15:03:40;1.42;;;0.90;;
15643;SDS011;7921;43.586;1.408;2023-05-10T15:06:05;2.65;;;1.15;;
15643;SDS011;7921;43.586;1.408;2023-05-10T15:08:31;1.02;;;0.70;;
15643;SDS011;7921;43.586;1.408;2023-05-10T15:10:56;1.23;;;0.85;;
15643;SDS011;7921;43.586;1.408;2023-05-10T15:13:22;2.30;;;0.80;;
15643;SDS011;7921;43.586;1.408;2023-05-10T15:15:47;1.73;;;0.68;;
15643;SDS011;7921;43.586;1.408;2023-05-10T15:18:13;1.08;;;0.93;;
15643;SDS011;7921;43.586;1.408;2023-05-10T15:20:38;1.55;;;0.80;;
15643;SDS011;7921;43.586;1.408;2023-05-10T15:23:03;1.90;;;1.02;;
15643;SDS011;7921;43.586;1.408;2023-05-10T15:25:29;1.88;;;0.85;;
15643;SDS011;7921;43.586;1.408;2023-05-10T15:27:54;3.72;;;1.48;;
15643;SDS011;7921;43.586;1.408;2023-05-10T15:30:20;2.17;;;0.98;;
15643;SDS011;7921;43.586;1.408;2023-05-10T15:32:45;2.03;;;0.70;;
15643;SDS011;7921;43.586;1.408;2023-05-10T15:35:11;2.22;;;1.40;;
15643;SDS011;7921;43.586;1.408;2023-05-10T15:37:36;1.58;;;0.73;;